Time;durP1;ratioP1;P1;durP2;ratioP2;P2;SDS_P1;SDS_P2;PMS_P1;PMS_P2;Temp;Humidity;BMP_temperature;BMP_pressure;BME280_temperature;BME280_humidity;BME280_pressure;Samples;Min_cycle;Max_cycle;Signal;HPM_P1;HPM_P2
2023/06/23 00:00:11;;;;;;;9.63;8.73;;;;;;;17.81;82.23;95129.63;5056483;28;20047;-72
2023/06/23 00:02:40;;;;;;;10.93;8.90;;;;;;;17.80;82.42;95139.34;5072436;28;20040;-73
2023/06/23 00:05:07;;;;;;;9.23;8.32;;;;;;;17.75;82.66;95138.16;5071511;28;20059;-72
2023/06/23 00:07:33;;;;;;;9.52;8.52;;;;;;;17.72;82.88;95126.16;5069238;28;20032;-72
2023/06/23 00:09:59;;;;;;;9.25;8.35;;;;;;;17.70;83.03;95127.31;5070878;28;20066;-73
2023/06/23 00:12:24;;;;;;;9.98;8.98;;;;;;;17.64;83.58;95137.47;5056257;28;20035;-73
2023/06/23 00:14:50;;;;;;;9.27;8.40;;;;;;;17.71;83.22;95131.56;5073021;28;20035;-72
2023/06/23 00:17:15;;;;;;;10.23;9.18;;;;;;;17.62;83.58;95136.81;5072991;28;20069;-72
2023/06/23 00:19:41;;;;;;;12.20;9.07;;;;;;;17.54;83.76;95120.22;5089795;28;20025;-72
2023/06/23 00:22:06;;;;;;;10.50;9.45;;;;;;;17.56;84.01;95131.41;5063634;28;20122;-72
2023/06/23 00:24:32;;;;;;;10.32;9.32;;;;;;;17.54;83.99;95120.22;5036212;28;20476;-72
2023/06/23 00:26:58;;;;;;;10.77;8.98;;;;;;;17.54;84.05;95128.09;5070794;28;20474;-72
2023/06/23 00:29:23;;;;;;;11.23;9.13;;;;;;;17.53;84.43;95127.28;5069560;28;20107;-73
2023/06/23 00:31:49;;;;;;;11.15;9.32;;;;;;;17.45;84.43;95123.81;5084437;28;20089;-72
2023/06/23 00:34:15;;;;;;;10.57;9.48;;;;;;;17.41;85.27;95129.41;5089527;28;20024;-72
2023/06/23 00:36:41;;;;;;;9.75;8.60;;;;;;;17.47;84.85;95111.34;5072928;28;20031;-73
2023/06/23 00:39:08;;;;;;;10.63;9.55;;;;;;;17.45;85.14;95124.66;5056026;28;20032;-72
2023/06/23 00:41:34;;;;;;;10.43;9.32;;;;;;;17.36;85.42;95110.69;5090307;28;20081;-72
2023/06/23 00:43:59;;;;;;;10.70;9.65;;;;;;;17.41;85.08;95111.03;5089548;28;20016;-72
2023/06/23 00:46:25;;;;;;;9.85;8.85;;;;;;;17.56;84.66;95120.88;5083647;28;20510;-72
2023/06/23 00:48:50;;;;;;;10.55;9.07;;;;;;;17.39;85.51;95112.16;5057182;28;20028;-72
2023/06/23 00:51:16;;;;;;;10.10;9.10;;;;;;;17.37;85.69;95111.50;5072624;28;20558;-72
2023/06/23 00:53:46;;;;;;;10.90;9.63;;;;;;;17.34;85.66;95112.63;5072807;28;20047;-72
2023/06/23 00:56:13;;;;;;;11.75;9.82;;;;;;;17.34;85.80;95112.63;5073321;28;20031;-72
2023/06/23 00:58:38;;;;;;;11.57;9.65;;;;;;;17.30;85.63;95113.09;5077895;28;20410;-73
2023/06/23 01:01:05;;;;;;;10.70;9.60;;;;;;;17.31;85.49;95112.97;5069296;28;20025;-72
2023/06/23 01:03:31;;;;;;;10.63;9.25;;;;;;;17.33;85.38;95118.06;5052624;28;20040;-73
2023/06/23 01:05:57;;;;;;;11.18;9.77;;;;;;;17.25;85.85;95111.00;5052678;28;20056;-73
2023/06/23 01:08:55;;;;;;;11.40;10.20;;;;;;;17.20;86.40;95110.66;5069171;28;20064;-73
2023/06/23 01:11:38;;;;;;;13.15;9.95;;;;;;;17.25;86.19;95123.28;5058661;28;20040;-72
2023/06/23 01:14:16;;;;;;;10.70;9.55;;;;;;;17.14;86.81;95121.78;5074104;28;20032;-72
2023/06/23 01:16:44;;;;;;;11.35;10.15;;;;;;;17.11;86.64;95127.38;5062173;28;20489;-73
2023/06/23 01:19:28;;;;;;;11.75;10.35;;;;;;;17.19;86.56;95125.56;5035798;28;20469;-73
2023/06/23 01:22:16;;;;;;;12.35;9.50;;;;;;;17.34;85.71;95127.56;5070337;28;20072;-72
2023/06/23 01:25:14;;;;;;;11.07;9.35;;;;;;;17.28;86.04;95123.78;5070582;28;20025;-72
2023/06/23 01:27:46;;;;;;;12.23;10.05;;;;;;;17.29;85.67;95124.59;5089342;28;20035;-73
2023/06/23 01:30:14;;;;;;;10.10;8.93;;;;;;;17.36;85.34;95121.19;5090307;28;20024;-73
2023/06/23 01:33:10;;;;;;;10.30;9.27;;;;;;;17.24;85.69;95114.56;5072561;28;20040;-72
2023/06/23 01:35:42;;;;;;;11.10;9.90;;;;;;;17.22;85.97;95113.09;5067741;28;20044;-73
2023/06/23 01:38:14;;;;;;;11.55;10.32;;;;;;;17.04;86.63;95105.34;5052521;28;20430;-73
2023/06/23 01:40:39;;;;;;;11.48;10.25;;;;;;;16.95;86.86;95092.19;5036018;28;20028;-72
2023/06/23 01:43:06;;;;;;;13.38;9.77;;;;;;;17.09;86.06;95108.31;5056156;28;20073;-72
2023/06/23 01:45:32;;;;;;;11.48;10.27;;;;;;;17.04;86.48;95107.97;5092291;28;20047;-73
2023/06/23 01:48:00;;;;;;;12.23;10.45;;;;;;;17.06;86.32;95108.63;5057122;28;20032;-72
2023/06/23 01:50:25;;;;;;;12.50;11.07;;;;;;;17.09;86.29;95118.81;5055661;28;20044;-72
2023/06/23 01:52:51;;;;;;;11.57;10.38;;;;;;;17.02;86.28;95094.19;5065595;28;20395;-72
2023/06/23 01:55:17;;;;;;;12.05;10.73;;;;;;;17.14;86.14;95108.66;5075677;28;20039;-73
2023/06/23 01:57:43;;;;;;;11.05;9.95;;;;;;;17.14;85.69;95106.03;5092503;28;20032;-73
2023/06/23 02:00:13;;;;;;;13.52;10.27;;;;;;;17.07;85.93;95094.53;5075474;28;20120;-72
2023/06/23 02:02:43;;;;;;;12.00;10.60;;;;;;;17.12;85.78;95110.63;5059421;28;20406;-72
2023/06/23 02:05:09;;;;;;;12.20;10.38;;;;;;;17.13;85.85;95110.47;5055441;28;20036;-72
2023/06/23 02:07:34;;;;;;;12.40;10.57;;;;;;;17.12;85.94;95111.44;5055528;28;20165;-72
2023/06/23 02:09:59;;;;;;;12.98;9.90;;;;;;;17.02;86.23;95112.56;5057151;28;20537;-72
2023/06/23 02:12:25;;;;;;;13.40;10.65;;;;;;;16.97;86.25;95116.47;5075396;28;20047;-72
2023/06/23 02:14:50;;;;;;;13.02;10.88;;;;;;;16.95;86.58;95117.63;5092130;28;20024;-73
2023/06/23 02:17:16;;;;;;;11.68;10.10;;;;;;;17.00;85.74;95119.78;5092029;28;20552;-72
2023/06/23 02:19:45;;;;;;;11.35;9.98;;;;;;;17.02;85.98;95120.41;5067043;28;20083;-72
2023/06/23 02:22:13;;;;;;;11.25;9.73;;;;;;;17.13;85.26;95122.75;5055171;28;20090;-73
2023/06/23 02:24:39;;;;;;;12.38;10.00;;;;;;;17.01;85.75;95119.59;5055403;28;20517;-73
2023/06/23 02:27:05;;;;;;;11.48;10.27;;;;;;;16.97;85.53;95111.25;5072983;28;20036;-72
2023/06/23 02:29:31;;;;;;;12.80;10.65;;;;;;;16.96;85.78;95114.81;5052068;28;20055;-72
2023/06/23 02:31:56;;;;;;;12.20;10.10;;;;;;;17.05;85.25;95115.69;5074827;28;20070;-73
2023/06/23 02:34:21;;;;;;;13.02;9.57;;;;;;;17.13;85.17;95120.13;5091654;28;20028;-72
2023/06/23 02:36:48;;;;;;;10.57;9.48;;;;;;;17.21;84.38;95120.16;5074861;28;20048;-73
2023/06/23 02:39:15;;;;;;;11.40;10.00;;;;;;;17.13;84.13;95109.63;5054855;28;20036;-73
2023/06/23 02:41:41;;;;;;;10.25;9.18;;;;;;;17.18;83.96;95113.41;5055046;28;20028;-73
2023/06/23 02:44:12;;;;;;;10.20;9.07;;;;;;;17.08;84.25;95112.75;5038023;28;20398;-73
2023/06/23 02:46:38;;;;;;;10.18;9.05;;;;;;;17.11;84.08;95112.44;5061655;28;20505;-72
2023/06/23 02:49:06;;;;;;;10.23;9.23;;;;;;;17.02;84.59;95113.41;5074604;28;20032;-73
2023/06/23 02:51:31;;;;;;;12.15;10.00;;;;;;;17.02;84.77;95107.31;5074618;28;20531;-72
2023/06/23 02:54:04;;;;;;;11.57;10.38;;;;;;;17.04;85.13;95121.91;5074508;28;20036;-73
2023/06/23 02:56:29;;;;;;;11.27;10.18;;;;;;;17.10;84.96;95120.44;5077270;28;20032;-73
2023/06/23 02:59:00;;;;;;;10.18;9.15;;;;;;;17.11;84.52;95112.44;5054250;28;20032;-72
2023/06/23 03:01:26;;;;;;;;;;;;;;;17.06;84.77;95113.88;5055211;28;20037;-72
2023/06/23 03:03:52;;;;;;;10.18;8.82;;;;;;;16.97;84.89;95103.38;5070935;28;19927;-73
2023/06/23 03:06:21;;;;;;;11.63;10.05;;;;;;;16.97;85.05;95111.25;5054151;28;20020;-72
2023/06/23 03:08:49;;;;;;;10.65;9.63;;;;;;;16.90;85.34;95104.97;5078282;28;20550;-73
2023/06/23 03:11:18;;;;;;;10.90;9.63;;;;;;;16.88;85.36;95104.31;5070892;28;20029;-73
2023/06/23 03:13:44;;;;;;;12.27;9.77;;;;;;;16.82;85.12;95089.19;5070196;28;20032;-73
2023/06/23 03:16:20;;;;;;;11.50;9.80;;;;;;;16.87;85.48;95101.84;5054128;28;20029;-73
2023/06/23 03:18:53;;;;;;;10.93;9.80;;;;;;;16.99;84.90;95108.44;5038712;28;20047;-72
2023/06/23 03:21:18;;;;;;;11.35;8.75;;;;;;;17.13;84.03;95104.38;5054880;28;20498;-72
2023/06/23 03:23:49;;;;;;;10.43;9.32;;;;;;;17.05;84.39;95112.22;5054081;28;20036;-72
2023/06/23 03:26:15;;;;;;;;;;;;;;;17.03;84.41;95106.34;5070883;28;20024;-72
2023/06/23 03:28:40;;;;;;;9.70;8.70;;;;;;;17.02;84.23;95107.31;5070446;28;19920;-73
2023/06/23 03:31:12;;;;;;;10.10;9.00;;;;;;;17.01;84.27;95113.53;5070382;28;20275;-73
2023/06/23 03:33:41;;;;;;;10.20;8.95;;;;;;;17.14;83.87;95108.66;5054144;28;20071;-73
2023/06/23 03:36:16;;;;;;;10.80;9.38;;;;;;;17.11;84.26;95107.19;5058582;28;20042;-73
2023/06/23 03:39:07;;;;;;;10.43;9.32;;;;;;;17.27;83.85;95122.13;5079667;28;20511;-73
2023/06/23 03:41:33;;;;;;;12.35;10.23;;;;;;;17.30;83.88;95118.38;5079858;28;20031;-72
2023/06/23 03:44:01;;;;;;;11.48;9.38;;;;;;;17.33;83.74;95118.88;5051341;28;20029;-72
2023/06/23 03:46:28;;;;;;;10.43;9.32;;;;;;;17.20;83.97;95106.22;5089252;28;20035;-73
2023/06/23 03:48:55;;;;;;;11.32;9.20;;;;;;;17.28;83.82;95107.22;5073074;28;20027;-73
2023/06/23 03:51:21;;;;;;;11.20;9.00;;;;;;;17.51;83.46;95115.28;5071848;28;20024;-73
2023/06/23 03:53:46;;;;;;;10.02;9.00;;;;;;;17.57;82.90;95112.00;5073156;28;20559;-72
2023/06/23 03:56:12;;;;;;;10.50;9.40;;;;;;;17.63;82.64;95106.09;5064011;28;20773;-73
2023/06/23 03:58:37;;;;;;;10.20;9.13;;;;;;;17.76;81.91;95114.31;5057319;28;20024;-70
2023/06/23 04:01:03;;;;;;;11.80;9.68;;;;;;;17.76;81.76;95105.63;5073345;28;20024;-73
2023/06/23 04:03:28;;;;;;;11.02;9.30;;;;;;;18.00;80.51;95117.97;5071678;28;20478;-71
2023/06/23 04:05:54;;;;;;;9.32;8.43;;;;;;;18.02;80.58;95116.81;5069707;28;20106;-72
2023/06/23 04:08:19;;;;;;;10.07;9.07;;;;;;;18.25;79.92;95119.59;5072713;28;20031;-73
2023/06/23 04:10:45;;;;;;;9.70;8.70;;;;;;;18.73;77.55;95115.19;5090097;28;20024;-74
2023/06/23 04:13:10;;;;;;;10.30;9.15;;;;;;;19.41;75.81;95123.47;5071261;28;20078;-78
2023/06/23 04:15:37;;;;;;;9.45;8.55;;;;;;;19.97;74.87;95124.06;5058125;28;20039;-76
2023/06/23 04:18:03;;;;;;;8.82;7.93;;;;;;;20.69;72.08;95133.34;5079142;28;20032;-76
2023/06/23 04:20:28;;;;;;;12.77;9.55;;;;;;;21.17;69.22;95134.59;5062230;28;20553;-77
2023/06/23 04:22:54;;;;;;;10.98;9.88;;;;;;;21.25;68.79;95128.38;5074729;28;20044;-73
2023/06/23 04:25:19;;;;;;;13.00;9.23;;;;;;;21.65;66.99;95128.84;5054071;28;20074;-77
2023/06/23 04:27:45;;;;;;;12.50;10.30;;;;;;;21.85;67.09;95129.84;5070982;28;20031;-75
2023/06/23 04:30:11;;;;;;;10.55;9.45;;;;;;;22.00;67.08;95121.84;5057343;28;20032;-75
2023/06/23 04:32:37;;;;;;;14.20;9.70;;;;;;;22.58;66.15;95136.78;5074485;28;20629;-75
2023/06/23 04:35:02;;;;;;;11.68;10.32;;;;;;;22.79;64.85;95139.38;5042440;28;20039;-75
2023/06/23 04:37:37;;;;;;;10.13;9.13;;;;;;;22.95;64.34;95143.50;5081204;28;20036;-75
2023/06/23 04:40:10;;;;;;;12.23;9.27;;;;;;;23.26;63.59;95135.13;5082618;28;20027;-75
2023/06/23 04:42:48;;;;;;;13.13;10.45;;;;;;;23.24;62.36;95125.78;5068499;28;20036;-75
2023/06/23 04:45:16;;;;;;;9.98;8.77;;;;;;;23.59;60.64;95132.59;5068142;28;20040;-75
2023/06/23 04:47:41;;;;;;;11.95;8.88;;;;;;;23.56;62.08;95129.53;5051929;28;20044;-75
2023/06/23 04:50:09;;;;;;;11.52;7.90;;;;;;;23.70;60.71;95143.66;5063885;28;20048;-75
2023/06/23 04:52:34;;;;;;;9.18;7.82;;;;;;;23.40;61.00;95134.19;5067298;28;20044;-75
2023/06/23 04:55:01;;;;;;;8.48;7.68;;;;;;;23.44;60.57;95139.09;5067548;28;20031;-75
2023/06/23 04:57:28;;;;;;;8.68;7.78;;;;;;;23.31;61.20;95134.53;5085638;28;20044;-75
2023/06/23 04:59:56;;;;;;;8.02;7.32;;;;;;;23.29;60.72;95140.06;5065814;28;20021;-75
2023/06/23 05:02:22;;;;;;;7.93;7.13;;;;;;;23.29;60.48;95134.75;5068168;28;20044;-74
2023/06/23 05:04:48;;;;;;;8.35;7.47;;;;;;;23.09;60.38;95137.31;5066937;28;20035;-75
2023/06/23 05:07:14;;;;;;;8.38;7.57;;;;;;;22.89;61.30;95139.81;5068737;28;20029;-75
2023/06/23 05:09:40;;;;;;;9.10;8.18;;;;;;;22.69;60.87;95149.47;5085340;28;20035;-75
2023/06/23 05:12:05;;;;;;;8.18;7.40;;;;;;;22.51;62.24;95129.63;5065206;28;20032;-75
2023/06/23 05:14:31;;;;;;;10.48;7.93;;;;;;;22.35;62.98;95129.91;5064191;28;20060;-75
2023/06/23 05:16:57;;;;;;;8.43;7.63;;;;;;;22.52;62.47;95139.19;5085179;28;20040;-75
2023/06/23 05:19:23;;;;;;;8.50;7.53;;;;;;;22.23;62.54;95132.28;5053553;28;20032;-75
2023/06/23 05:21:48;;;;;;;10.60;7.65;;;;;;;22.35;63.08;95142.31;5089943;28;20035;-75
2023/06/23 05:24:14;;;;;;;16.60;8.48;;;;;;;22.36;63.48;95130.72;5051643;28;20551;-75
2023/06/23 05:26:41;;;;;;;9.20;7.60;;;;;;;22.11;64.01;95123.16;5055952;28;20031;-75
2023/06/23 05:29:07;;;;;;;9.68;7.30;;;;;;;22.30;62.92;95138.41;5071812;28;20024;-75
2023/06/23 05:31:35;;;;;;;8.68;7.88;;;;;;;22.24;63.60;95144.47;5055967;28;20036;-75
2023/06/23 05:34:00;;;;;;;8.82;7.90;;;;;;;22.40;63.51;95143.38;5068859;28;20039;-75
2023/06/23 05:36:26;;;;;;;7.88;7.07;;;;;;;22.46;62.67;95153.19;5070377;28;20021;-75
2023/06/23 05:38:52;;;;;;;8.25;7.45;;;;;;;22.60;62.49;95148.81;5088985;28;20085;-75
2023/06/23 05:41:17;;;;;;;8.20;7.30;;;;;;;22.60;62.78;95140.88;5089139;28;20031;-75
2023/06/23 05:43:42;;;;;;;8.68;7.80;;;;;;;22.89;63.20;95157.53;5050667;28;20094;-75
2023/06/23 05:46:11;;;;;;;12.48;11.18;;;;;;;22.76;63.61;95158.28;5072765;28;20035;-75
2023/06/23 05:48:48;;;;;;;12.05;10.68;;;;;;;22.58;63.35;95157.97;5070353;28;20032;-75
2023/06/23 05:51:16;;;;;;;11.02;9.93;;;;;;;22.68;64.01;95150.50;5071945;28;20495;-75
2023/06/23 05:53:42;;;;;;;14.45;12.68;;;;;;;22.48;65.32;95155.63;5053664;28;20161;-75
2023/06/23 05:56:16;;;;;;;16.48;12.48;;;;;;;22.61;65.00;95162.88;5068681;28;20044;-75
2023/06/23 05:58:45;;;;;;;15.15;12.43;;;;;;;22.80;65.12;95161.38;5084836;28;20168;-76
2023/06/23 06:01:13;;;;;;;14.05;12.75;;;;;;;22.68;64.75;95166.41;5072078;28;20020;-74
2023/06/23 06:04:06;;;;;;;13.73;12.27;;;;;;;22.60;64.90;95163.91;5071329;28;20039;-74
2023/06/23 06:06:31;;;;;;;14.43;12.93;;;;;;;22.69;64.72;95168.84;5062164;28;20422;-75
2023/06/23 06:08:57;;;;;;;15.52;13.40;;;;;;;22.81;65.13;95165.66;5055122;28;20032;-74
2023/06/23 06:11:22;;;;;;;14.88;13.20;;;;;;;22.88;64.69;95169.97;5088119;28;20020;-74
2023/06/23 06:13:48;;;;;;;16.67;13.95;;;;;;;23.06;65.09;95164.19;5068279;28;20050;-75
2023/06/23 06:16:13;;;;;;;19.08;14.55;;;;;;;23.26;63.52;95160.81;5088842;28;20028;-74
2023/06/23 06:18:39;;;;;;;14.43;13.02;;;;;;;23.39;62.77;95160.88;5071158;28;20043;-74
2023/06/23 06:21:04;;;;;;;17.90;14.30;;;;;;;23.34;63.44;95150.88;5086300;28;20023;-74
2023/06/23 06:23:30;;;;;;;14.57;13.00;;;;;;;23.25;64.02;95156.53;5070365;28;20040;-75
2023/06/23 06:25:56;;;;;;;17.77;13.40;;;;;;;23.00;63.93;95154.38;5068178;28;20067;-74
2023/06/23 06:28:21;;;;;;;15.23;13.70;;;;;;;22.83;64.20;95150.38;5069473;28;20486;-73
2023/06/23 06:30:46;;;;;;;14.18;12.77;;;;;;;23.42;62.38;95152.53;5050862;28;20028;-74
2023/06/23 06:33:12;;;;;;;14.15;12.13;;;;;;;23.33;63.07;95153.72;5053103;28;20441;-75
2023/06/23 06:35:38;;;;;;;12.15;10.85;;;;;;;23.57;62.60;95155.88;5054783;28;20032;-75
2023/06/23 06:38:03;;;;;;;12.32;11.05;;;;;;;23.98;61.31;95149.63;5088154;28;20060;-75
2023/06/23 06:40:28;;;;;;;12.23;10.82;;;;;;;23.89;61.26;95142.09;5071074;28;20547;-75
2023/06/23 06:42:54;;;;;;;11.45;10.30;;;;;;;23.90;61.23;95125.97;5071384;28;20036;-75
2023/06/23 06:45:19;;;;;;;11.38;10.18;;;;;;;23.93;60.76;95138.84;5065481;28;20028;-75
2023/06/23 06:47:45;;;;;;;9.73;8.55;;;;;;;24.47;58.51;95135.22;5070651;28;20036;-75
2023/06/23 06:50:14;;;;;;;10.88;8.93;;;;;;;24.67;58.82;95132.53;5068204;28;20044;-75
2023/06/23 06:52:39;;;;;;;10.53;9.13;;;;;;;24.45;59.19;95129.28;5087524;28;20046;-75
2023/06/23 06:55:05;;;;;;;11.27;8.85;;;;;;;24.64;58.58;95124.16;5063826;28;20433;-75
2023/06/23 06:57:35;;;;;;;9.45;8.55;;;;;;;24.80;58.93;95122.91;5084465;28;20034;-75
2023/06/23 07:00:03;;;;;;;9.68;8.68;;;;;;;25.36;55.52;95115.19;5085650;28;20028;-76
2023/06/23 07:02:29;;;;;;;10.35;8.85;;;;;;;25.43;56.01;95117.81;5052700;28;20486;-76
2023/06/23 07:04:54;;;;;;;9.48;8.48;;;;;;;25.21;56.29;95109.31;5085387;28;20039;-76
2023/06/23 07:07:20;;;;;;;9.85;8.77;;;;;;;25.50;56.91;95104.50;5064617;28;20086;-76
2023/06/23 07:09:45;;;;;;;9.60;8.70;;;;;;;25.68;55.96;95085.94;5080276;28;20028;-76
2023/06/23 07:12:11;;;;;;;11.43;9.52;;;;;;;25.34;55.33;95079.19;5086619;28;20497;-76
2023/06/23 07:14:36;;;;;;;10.10;9.10;;;;;;;25.11;56.59;95085.81;5084927;28;20032;-76
2023/06/23 07:17:02;;;;;;;11.02;9.43;;;;;;;25.23;56.75;95093.16;5080773;28;20450;-75
2023/06/23 07:19:27;;;;;;;10.55;9.43;;;;;;;25.57;56.03;95084.78;5083795;28;21083;-76
2023/06/23 07:21:52;;;;;;;11.90;10.70;;;;;;;25.24;56.05;95077.00;5087807;28;20028;-76
2023/06/23 07:24:18;;;;;;;12.70;10.43;;;;;;;25.31;55.95;95079.63;5066324;28;20028;-76
2023/06/23 07:26:43;;;;;;;10.65;9.55;;;;;;;25.68;55.30;95075.31;5082650;28;20035;-76
2023/06/23 07:29:09;;;;;;;10.93;9.63;;;;;;;25.92;55.87;95076.41;5087704;28;20028;-75
2023/06/23 07:31:37;;;;;;;13.43;10.05;;;;;;;26.15;53.53;95085.66;5069583;28;20036;-76
2023/06/23 07:34:02;;;;;;;11.05;9.43;;;;;;;26.30;53.17;95073.66;5052174;28;20108;-76
2023/06/23 07:36:28;;;;;;;11.23;10.10;;;;;;;26.61;53.30;95082.63;5089338;28;20474;-76
2023/06/23 07:38:53;;;;;;;12.50;10.45;;;;;;;26.39;53.48;95087.50;5086856;28;20059;-76
2023/06/23 07:41:18;;;;;;;10.98;9.20;;;;;;;26.16;52.07;95082.78;5068472;28;20069;-76
2023/06/23 07:43:44;;;;;;;10.23;8.98;;;;;;;26.19;53.29;95084.22;5084208;28;20032;-76
2023/06/23 07:46:09;;;;;;;10.55;9.45;;;;;;;26.17;53.61;95076.44;5069775;28;20028;-76
2023/06/23 07:48:35;;;;;;;12.32;10.13;;;;;;;26.29;55.04;95079.19;5079459;28;20123;-77
2023/06/23 07:51:00;;;;;;;11.88;10.30;;;;;;;26.23;54.92;95083.53;5084163;28;20409;-75
2023/06/23 07:53:26;;;;;;;11.05;9.88;;;;;;;26.18;54.96;95071.91;5086810;28;20051;-75
2023/06/23 07:55:52;;;;;;;11.85;10.57;;;;;;;25.96;54.89;95061.63;5066560;28;20024;-75
2023/06/23 07:58:18;;;;;;;14.10;11.88;;;;;;;25.74;55.72;95063.84;5086231;28;20116;-75
2023/06/23 08:00:43;;;;;;;13.52;10.80;;;;;;;26.07;54.58;95060.13;5068923;28;20550;-76
2023/06/23 08:03:08;;;;;;;10.88;9.00;;;;;;;26.57;54.02;95072.63;5087102;28;20039;-76
2023/06/23 08:05:34;;;;;;;11.40;10.30;;;;;;;26.41;54.10;95068.63;5070307;28;20077;-76
2023/06/23 08:07:59;;;;;;;13.23;10.25;;;;;;;26.31;53.54;95066.47;5088952;28;20028;-75
2023/06/23 08:10:25;;;;;;;12.18;9.65;;;;;;;26.22;53.62;95075.78;5068349;28;20028;-75
2023/06/23 08:12:50;;;;;;;14.75;10.40;;;;;;;26.10;54.42;95062.34;5087898;28;20024;-77
2023/06/23 08:15:15;;;;;;;10.90;9.80;;;;;;;26.38;54.66;95061.09;5047406;28;20392;-76
2023/06/23 08:17:41;;;;;;;11.77;9.70;;;;;;;26.52;54.06;95065.28;5069525;28;20493;-78
2023/06/23 08:20:07;;;;;;;12.60;10.23;;;;;;;26.41;53.88;95069.47;5084262;28;20032;-73
2023/06/23 08:22:32;;;;;;;13.82;9.88;;;;;;;26.38;52.52;95066.41;5087555;28;20032;-73
2023/06/23 08:24:58;;;;;;;12.25;9.52;;;;;;;26.36;52.85;95073.81;5067742;28;20452;-74
2023/06/23 08:27:23;;;;;;;11.27;10.13;;;;;;;26.67;53.40;95079.06;5085928;28;20028;-73
2023/06/23 08:29:48;;;;;;;14.43;10.02;;;;;;;27.01;51.02;95068.03;5068446;28;20582;-74
2023/06/23 08:32:16;;;;;;;10.77;9.68;;;;;;;26.87;51.19;95072.72;5085560;28;20032;-73
2023/06/23 08:34:41;;;;;;;11.93;9.95;;;;;;;26.84;51.56;95067.84;5067943;28;20036;-74
2023/06/23 08:37:07;;;;;;;13.20;11.20;;;;;;;26.71;51.93;95072.25;5086410;28;20039;-73
2023/06/23 08:39:32;;;;;;;13.63;10.68;;;;;;;27.09;51.26;95067.75;5083962;28;20035;-76
2023/06/23 08:41:58;;;;;;;10.25;9.18;;;;;;;27.27;49.50;95062.41;5068617;28;20040;-76
2023/06/23 08:44:24;;;;;;;10.07;9.07;;;;;;;27.46;49.37;95067.72;5083699;28;20567;-77
2023/06/23 08:46:52;;;;;;;11.77;9.63;;;;;;;27.37;48.68;95048.53;5069250;28;20024;-76
2023/06/23 08:49:18;;;;;;;12.73;9.77;;;;;;;27.58;48.72;95056.06;5068431;28;20117;-76
2023/06/23 08:51:43;;;;;;;10.73;8.80;;;;;;;27.84;48.15;95064.75;5049808;28;20486;-75
2023/06/23 08:54:09;;;;;;;11.15;9.95;;;;;;;27.87;48.95;95064.28;5083850;28;20379;-75
2023/06/23 08:56:34;;;;;;;12.38;10.82;;;;;;;27.75;51.00;95066.91;5089469;28;20136;-76
2023/06/23 08:59:00;;;;;;;12.60;9.75;;;;;;;27.94;51.19;95058.81;5071742;28;20024;-75
2023/06/23 09:01:26;;;;;;;12.13;10.52;;;;;;;27.99;50.38;95061.63;5072354;28;20024;-75
2023/06/23 09:03:51;;;;;;;10.68;9.68;;;;;;;27.66;49.91;95051.41;5088520;28;20100;-75
2023/06/23 09:06:16;;;;;;;13.55;9.48;;;;;;;27.77;49.70;95043.44;5090778;28;20035;-75
2023/06/23 09:08:42;;;;;;;11.60;9.55;;;;;;;27.74;49.39;95048.44;5071215;28;20082;-75
2023/06/23 09:11:07;;;;;;;12.48;10.65;;;;;;;27.73;51.44;95036.94;5070947;28;20039;-75
2023/06/23 09:13:36;;;;;;;15.05;10.70;;;;;;;27.70;52.69;95047.28;5089505;28;20031;-75
2023/06/23 09:16:01;;;;;;;10.73;9.63;;;;;;;27.37;52.41;95043.22;5052488;28;20035;-75
2023/06/23 09:18:27;;;;;;;10.90;9.80;;;;;;;27.59;53.19;95043.53;5088235;28;20048;-75
2023/06/23 09:20:52;;;;;;;10.27;9.27;;;;;;;27.28;51.50;95025.91;5071735;28;20054;-75
2023/06/23 09:23:22;;;;;;;13.32;10.30;;;;;;;27.66;51.44;95040.75;5070695;28;20673;-74
2023/06/23 09:25:51;;;;;;;11.07;9.97;;;;;;;27.76;53.36;95036.50;5089203;28;20020;-75
2023/06/23 09:28:27;;;;;;;10.85;9.85;;;;;;;27.65;51.35;95050.63;5089350;28;20392;-75
2023/06/23 09:30:57;;;;;;;11.65;10.40;;;;;;;27.53;52.75;95028.44;5072192;28;20094;-75
2023/06/23 09:33:23;;;;;;;10.32;9.30;;;;;;;27.47;51.50;95035.50;5087782;28;20040;-74
2023/06/23 09:35:49;;;;;;;10.48;9.38;;;;;;;27.68;49.83;95041.34;5071674;28;20460;-75
2023/06/23 09:38:26;;;;;;;13.85;10.10;;;;;;;27.81;50.46;95025.97;5055064;28;20411;-75
2023/06/23 09:41:07;;;;;;;10.85;9.27;;;;;;;27.97;51.32;95032.50;5066994;28;20024;-75
2023/06/23 09:43:46;;;;;;;12.15;9.48;;;;;;;27.94;50.21;95038.28;5071261;28;20059;-75
2023/06/23 09:46:15;;;;;;;10.60;9.00;;;;;;;27.93;49.21;95031.31;5072853;28;20024;-75
2023/06/23 09:48:42;;;;;;;12.90;10.87;;;;;;;27.92;51.16;95035.06;5072765;28;20032;-75
2023/06/23 09:51:08;;;;;;;12.13;10.88;;;;;;;27.69;52.30;95003.75;5088452;28;20052;-75
2023/06/23 09:53:34;;;;;;;13.05;11.05;;;;;;;27.75;52.14;95020.69;5088869;28;20414;-74
2023/06/23 09:56:00;;;;;;;11.20;9.93;;;;;;;28.09;50.85;95031.72;5079014;28;20028;-73
2023/06/23 09:58:45;;;;;;;11.13;10.05;;;;;;;28.10;51.78;95014.63;5088806;28;20398;-74
2023/06/23 10:01:14;;;;;;;13.23;10.20;;;;;;;28.10;50.73;95015.44;5088089;28;20032;-74
2023/06/23 10:03:43;;;;;;;11.50;9.57;;;;;;;28.19;50.41;95018.56;5069354;28;20036;-74
2023/06/23 10:06:08;;;;;;;11.30;9.27;;;;;;;28.24;50.52;95016.84;5089652;28;20409;-74
2023/06/23 10:08:40;;;;;;;11.10;9.73;;;;;;;28.10;50.90;95022.66;5072087;28;20036;-74
2023/06/23 10:11:08;;;;;;;10.68;9.68;;;;;;;28.30;50.56;95004.41;5067868;28;20021;-74
2023/06/23 10:13:34;;;;;;;12.40;9.75;;;;;;;28.60;49.51;95009.66;5081721;28;20028;-74
2023/06/23 10:16:00;;;;;;;11.88;9.52;;;;;;;28.67;49.48;95012.22;5071484;28;20870;-74
2023/06/23 10:18:25;;;;;;;11.63;9.27;;;;;;;28.44;49.00;95007.69;5071601;28;20043;-74
2023/06/23 10:20:50;;;;;;;11.07;9.85;;;;;;;27.99;50.49;95003.72;5082814;28;20514;-73
2023/06/23 10:23:16;;;;;;;10.80;9.70;;;;;;;28.25;51.00;95001.63;5089014;28;20102;-74
2023/06/23 10:25:41;;;;;;;10.93;9.77;;;;;;;28.28;49.93;94991.31;5089573;28;20032;-74
2023/06/23 10:28:11;;;;;;;11.13;9.75;;;;;;;28.24;50.17;94976.78;5054677;28;20032;-74
2023/06/23 10:30:36;;;;;;;9.60;8.57;;;;;;;28.30;48.63;94985.72;5067247;28;20028;-74
2023/06/23 10:33:05;;;;;;;10.70;9.00;;;;;;;28.25;48.66;94982.94;5067469;28;20446;-73
2023/06/23 10:35:31;;;;;;;9.82;8.82;;;;;;;28.44;49.11;94989.78;5055241;28;20477;-74
2023/06/23 10:38:03;;;;;;;11.15;8.88;;;;;;;28.40;48.50;94991.28;5071340;28;20039;-73
2023/06/23 10:40:32;;;;;;;9.98;8.73;;;;;;;28.65;47.24;94991.06;5050052;28;20422;-74
2023/06/23 10:43:00;;;;;;;9.45;8.38;;;;;;;28.68;47.08;94969.19;5054523;28;20131;-74
2023/06/23 10:45:25;;;;;;;9.68;8.10;;;;;;;28.67;46.27;94988.97;5070161;28;20031;-74
2023/06/23 10:47:50;;;;;;;9.05;8.15;;;;;;;28.78;46.62;94979.31;5069426;28;20039;-74
2023/06/23 10:50:16;;;;;;;9.13;7.97;;;;;;;28.66;46.92;94960.59;5087130;28;20651;-74
2023/06/23 10:52:44;;;;;;;11.27;7.70;;;;;;;28.82;44.73;94971.63;5070819;28;20029;-74
2023/06/23 10:55:34;;;;;;;8.90;6.68;;;;;;;28.55;42.19;94974.00;5069957;28;20035;-74
2023/06/23 10:58:11;;;;;;;7.70;6.97;;;;;;;28.91;43.96;94968.31;5089277;28;20032;-74
2023/06/23 11:00:36;;;;;;;7.90;6.13;;;;;;;29.03;41.64;94956.75;5069898;28;20051;-74
2023/06/23 11:03:04;;;;;;;6.82;6.13;;;;;;;29.15;43.24;94962.94;5068712;28;20487;-74
2023/06/23 11:05:29;;;;;;;11.02;7.15;;;;;;;29.04;42.76;94951.22;5087304;28;20628;-74
2023/06/23 11:08:02;;;;;;;7.68;6.88;;;;;;;29.09;42.35;94954.00;5087823;28;20032;-74
2023/06/23 11:10:47;;;;;;;9.65;7.60;;;;;;;29.03;43.26;94954.09;5069219;28;20034;-74
2023/06/23 11:13:12;;;;;;;11.07;7.20;;;;;;;29.21;43.32;94947.78;5067357;28;20615;-74
2023/06/23 11:15:37;;;;;;;8.05;6.57;;;;;;;28.99;41.95;94952.97;5068732;28;20032;-74
2023/06/23 11:18:06;;;;;;;10.07;6.63;;;;;;;28.93;41.89;94944.84;5069302;28;20114;-74
2023/06/23 11:20:33;;;;;;;13.07;6.53;;;;;;;29.06;42.34;94937.59;5063913;28;20506;-74
2023/06/23 11:23:08;;;;;;;9.82;6.32;;;;;;;29.17;41.07;94934.09;5083790;28;20163;-74
2023/06/23 11:25:46;;;;;;;8.13;6.30;;;;;;;29.35;41.23;94930.38;5085648;28;20494;-73